Rochester, NY (14609)

1:37 AM EDT on June 23, 2017 (GMT -0400)
Homestead Heights | | Change Station

Elev 469 ft 43.17 °N, 77.56 °W | Updated 6 minutes ago

Overcast
Overcast
77.2 °F
Feels Like 79 °F
N
1.9
Wind Variable Wind from South
Gusts 6.2 mph

Today
High -- | Low -- °F
--% Chance of Precip.
Yesterday
High -- | Low -- °F
Precip. -- in
Pressure 29.77 in
Visibility 10.0 miles
Clouds Scattered Clouds 8000 ft
Mostly Cloudy 11000 ft
Overcast 25000 ft
Heat Index 79 °F
Dew Point 68 °F
Humidity 73%
Rainfall 0.00 in
Snow Depth Not available.
5:31 AM 8:53 PM
Waning Crescent, 1% visible
METAR KROC 230454Z 22012KT 10SM SCT080 BKN110 OVC250 25/21 A2977 RMK AO2 SLP081 T02500206 402780128
Pressure 29.77 in
Visibility 10.0 miles
Clouds Scattered Clouds 8000 ft
Mostly Cloudy 11000 ft
Overcast 25000 ft
Heat Index 79 °F
Dew Point 68 °F
Humidity 73%
Rainfall 0.00 in
Snow Depth Not available.
5:31 AM 8:53 PM
Waning Crescent, 1% visible
METAR KROC 230454Z 22012KT 10SM SCT080 BKN110 OVC250 25/21 A2977 RMK AO2 SLP081 T02500206 402780128

Get Severe Weather Alerts

Thanks for signing up!

Be on the lookout for a verification email in your inbox.

You'll start receiving the daily forecast at 6 AM.

×

10-Day Weather Forecast

Almanac

Astronomy

Jun. 23, 2017 Rise Set
Actual Time
Civil Twilight
Nautical Twilight
Astronomical Twilight
Moon
Length of Visible Light
Length of Day
Tomorrow will be .
, % of the Moon is Illuminated

Today's Extremes

State Highs State Lows

Community

WunderPhotos

Category 6

Welcome to Category 6. This is the collective home for Weather Underground's featured writeups by Dr. Jeff Masters (right), Bob Henson (left), Chris Burt, and other regular contributors.

Nearby

Air Quality

  Air Quality AQ Index Pollutant
Not available.

Snow Depth

Station Depth Elevation

Earthquake Activity

City Distance Mag. Time & Date
Minimum magnitude displayed is 2.5.

Coastal Water Temperatures

Place Temperature

Stations

Nearby Weather Stations

Station Location Temp. Windchill Dew Point Humidity Wind Precip. Elev Updated Type
                   

Watches & Warnings

There are currently no watches in effect.